Aerouant Breizh — FIHX — position and weather

sailwx.info

Track history (hours):
 
Tides and Currents Weather Stations Pressure Air Temp Water Temp Dewpoint Dewpoint Depression Visibility Wind Speed Wind Dir Waves Ship Positions

Aerouant Breizh

Last reported at 2017-Dec-12 19:52 UTC. Time now 2017-Dec-15 04:30 UTC.
Position N 48°06' W 004°20'.

Length 15 m.

Type: Fishing. MMSI: 228037600.

Date/timePositionNaut miles runAvg speedWind from/ knotsBaromVisibWave heightAir tempDewpointWater temp
2017-Dec-12 19:52N 48°06' W 004°20'0 0.0
2017-Dec-12 19:30N 48°06' W 004°20'3 6.5
2017-Dec-12 19:00N 48°09' W 004°20'5 9.2
2017-Dec-12 18:31N 48°12' W 004°25'0 0.4
2017-Dec-12 18:00N 48°12' W 004°25'1 1.1
2017-Dec-12 17:31N 48°12' W 004°25'0 0.4
2017-Dec-12 17:00N 48°12' W 004°25'2 4.9
2017-Dec-12 16:30N 48°10' W 004°24'4 8.1
2017-Dec-12 16:00N 48°07' W 004°20'1 1.4
2017-Dec-12 15:30N 48°06' W 004°20'0 0.0
2017-Dec-12 15:00N 48°06' W 004°20'  
2017-Dec-07 17:34N 48°06' W 004°19'0 0.0
2017-Dec-07 17:31N 48°06' W 004°19'2 3.5
2017-Dec-07 17:01N 48°08' W 004°19'1 2.6
2017-Dec-07 16:31N 48°08' W 004°20'3 6.9
2017-Dec-07 16:00N 48°11' W 004°24'4 8.6
2017-Dec-07 15:31N 48°08' W 004°19'2 3.9
2017-Dec-07 15:01N 48°06' W 004°19'0 0.9
2017-Dec-07 14:30N 48°06' W 004°19'  
2017-Dec-03 20:03N 48°06' W 004°19'0 0.0
2017-Dec-03 20:00N 48°06' W 004°19'0 0.2
2017-Dec-03 19:02N 48°06' W 004°20'0 0.0
2017-Dec-03 19:00N 48°06' W 004°20'4 7.6
2017-Dec-03 18:30N 48°10' W 004°20'4 7.1
2017-Dec-03 18:01N 48°12' W 004°24'3 5.5
2017-Dec-03 17:30N 48°10' W 004°27'0 0.5
2017-Dec-03 17:00N 48°10' W 004°27'0 0.2
2017-Dec-03 16:30N 48°10' W 004°26'1 1.4
2017-Dec-03 16:00N 48°10' W 004°26'2 3.8
2017-Dec-03 15:30N 48°10' W 004°23'5 9.4
2017-Dec-03 15:01N 48°06' W 004°19'  
Track history (hours):
 
Tides and Currents Weather Stations Pressure Air Temp Water Temp Dewpoint Dewpoint Depression Visibility Wind Speed Wind Dir Waves Ship Positions

Aerouant Breizh

Last reported at 2017-Dec-12 19:52 UTC. Time now 2017-Dec-15 04:30 UTC.
Position N 48°06' W 004°20'.

Length 15 m.

Type: Fishing. MMSI: 228037600.

Date/timePositionNaut miles runAvg speedWind from/ knotsBaromVisibWave heightAir tempDewpointWater temp
2017-Dec-12 19:52N 48°06' W 004°20'0 0.0
2017-Dec-12 19:30N 48°06' W 004°20'3 6.5
2017-Dec-12 19:00N 48°09' W 004°20'5 9.2
2017-Dec-12 18:31N 48°12' W 004°25'0 0.4
2017-Dec-12 18:00N 48°12' W 004°25'1 1.1
2017-Dec-12 17:31N 48°12' W 004°25'0 0.4
2017-Dec-12 17:00N 48°12' W 004°25'2 4.9
2017-Dec-12 16:30N 48°10' W 004°24'4 8.1
2017-Dec-12 16:00N 48°07' W 004°20'1 1.4
2017-Dec-12 15:30N 48°06' W 004°20'0 0.0
2017-Dec-12 15:00N 48°06' W 004°20'  
2017-Dec-07 17:34N 48°06' W 004°19'0 0.0
2017-Dec-07 17:31N 48°06' W 004°19'2 3.5
2017-Dec-07 17:01N 48°08' W 004°19'1 2.6
2017-Dec-07 16:31N 48°08' W 004°20'3 6.9
2017-Dec-07 16:00N 48°11' W 004°24'4 8.6
2017-Dec-07 15:31N 48°08' W 004°19'2 3.9
2017-Dec-07 15:01N 48°06' W 004°19'0 0.9
2017-Dec-07 14:30N 48°06' W 004°19'  
2017-Dec-03 20:03N 48°06' W 004°19'0 0.0
2017-Dec-03 20:00N 48°06' W 004°19'0 0.2
2017-Dec-03 19:02N 48°06' W 004°20'0 0.0
2017-Dec-03 19:00N 48°06' W 004°20'4 7.6
2017-Dec-03 18:30N 48°10' W 004°20'4 7.1
2017-Dec-03 18:01N 48°12' W 004°24'3 5.5
2017-Dec-03 17:30N 48°10' W 004°27'0 0.5
2017-Dec-03 17:00N 48°10' W 004°27'0 0.2
2017-Dec-03 16:30N 48°10' W 004°26'1 1.4
2017-Dec-03 16:00N 48°10' W 004°26'2 3.8
2017-Dec-03 15:30N 48°10' W 004°23'5 9.4
2017-Dec-03 15:01N 48°06' W 004°19'  

Dump ship's entire track history